createdAt,value
2018-08-11T00:00:33.538Z,54.27
2018-08-11T00:03:01.610Z,54.12
2018-08-11T00:05:29.723Z,53.72
2018-08-11T00:07:57.695Z,54.06
2018-08-11T00:10:25.689Z,54.37
2018-08-11T00:12:53.806Z,53.65
2018-08-11T00:15:21.980Z,53.53
2018-08-11T00:17:50.019Z,54.16
2018-08-11T00:20:27.219Z,54.02
2018-08-11T00:22:55.213Z,53.79
2018-08-11T00:25:23.262Z,53.33
2018-08-11T00:27:51.273Z,53.76
2018-08-11T00:30:20.407Z,53.29
2018-08-11T00:32:48.465Z,53.98
2018-08-11T00:35:16.709Z,54.07
2018-08-11T00:37:45.258Z,54.72
2018-08-11T00:40:16.029Z,54.35
2018-08-11T00:42:45.196Z,53.80
2018-08-11T00:45:14.172Z,54.39
2018-08-11T00:47:42.260Z,54.51
2018-08-11T00:50:12.881Z,54.90
2018-08-11T00:52:40.872Z,54.60
2018-08-11T00:55:10.457Z,54.19
2018-08-11T00:57:38.784Z,54.86
2018-08-11T01:00:10.564Z,53.97
2018-08-11T01:02:39.081Z,53.78
2018-08-11T01:05:09.186Z,53.50
2018-08-11T01:07:37.472Z,54.03
2018-08-11T01:10:05.948Z,54.18
2018-08-11T01:12:33.944Z,53.65
2018-08-11T01:15:02.022Z,52.97
2018-08-11T01:17:30.029Z,53.71
2018-08-11T01:19:58.025Z,53.51
2018-08-11T01:22:26.072Z,53.11
2018-08-11T01:24:54.390Z,54.09
2018-08-11T01:27:22.393Z,53.93
2018-08-11T01:29:50.429Z,53.68
2018-08-11T01:32:18.432Z,53.72
2018-08-11T01:34:46.417Z,53.46
2018-08-11T01:37:14.525Z,53.75
2018-08-11T01:39:42.509Z,54.70
2018-08-11T01:42:10.520Z,54.45
2018-08-11T01:44:38.508Z,54.74
2018-08-11T01:47:06.497Z,54.78
2018-08-11T01:49:34.548Z,54.74
2018-08-11T01:52:02.537Z,53.91
2018-08-11T01:54:30.551Z,53.82
2018-08-11T01:56:58.540Z,53.61
2018-08-11T01:59:26.528Z,53.31
2018-08-11T02:01:54.528Z,53.58
2018-08-11T02:04:22.541Z,53.41
2018-08-11T02:06:50.534Z,53.28
2018-08-11T02:09:18.633Z,53.80
2018-08-11T02:11:46.609Z,53.83
2018-08-11T02:14:14.636Z,53.13
2018-08-11T02:16:42.629Z,53.57
2018-08-11T02:19:10.636Z,52.62
2018-08-11T02:21:38.788Z,53.12
2018-08-11T02:24:06.945Z,53.57
2018-08-11T02:26:34.928Z,52.54
2018-08-11T02:29:02.976Z,53.34
2018-08-11T02:31:30.925Z,52.93
2018-08-11T02:33:58.912Z,53.38
2018-08-11T02:36:26.903Z,53.42
2018-08-11T02:38:54.906Z,52.94
2018-08-11T02:41:22.900Z,52.57
2018-08-11T02:43:50.893Z,52.52
2018-08-11T02:46:18.894Z,52.99
2018-08-11T02:48:46.889Z,52.34
2018-08-11T02:51:14.904Z,52.26
2018-08-11T02:53:42.904Z,52.57
2018-08-11T02:56:10.909Z,53.64
2018-08-11T02:58:38.916Z,54.35
2018-08-11T03:01:06.951Z,54.65
2018-08-11T03:03:34.960Z,55.39
2018-08-11T03:06:03.160Z,55.43
2018-08-11T03:08:31.235Z,55.57
2018-08-11T03:10:59.236Z,56.10
2018-08-11T03:13:27.280Z,56.16
2018-08-11T03:15:55.290Z,56.93
2018-08-11T03:18:23.323Z,56.83
2018-08-11T03:20:51.310Z,56.86
2018-08-11T03:23:19.304Z,56.50
2018-08-11T03:25:47.329Z,57.00
2018-08-11T03:28:15.333Z,57.12
2018-08-11T03:30:43.316Z,57.62
2018-08-11T03:33:11.306Z,57.88
2018-08-11T03:35:39.424Z,57.59
2018-08-11T03:38:07.485Z,58.42
2018-08-11T03:40:35.517Z,58.62
2018-08-11T03:43:03.497Z,59.80
2018-08-11T03:45:31.500Z,59.23
2018-08-11T03:47:59.494Z,59.59
2018-08-11T03:50:27.487Z,62.22
2018-08-11T03:52:55.488Z,64.26
2018-08-11T03:55:24.561Z,67.92
2018-08-11T03:57:52.575Z,68.37
2018-08-11T04:00:20.586Z,70.44
2018-08-11T04:02:48.605Z,69.53
2018-08-11T04:05:16.637Z,70.00
2018-08-11T04:07:44.670Z,70.50
2018-08-11T04:10:13.714Z,73.25
2018-08-11T04:12:41.720Z,73.66
2018-08-11T04:15:09.744Z,74.69
2018-08-11T04:17:39.854Z,75.41
2018-08-11T04:20:09.596Z,75.49
2018-08-11T04:22:37.628Z,75.12
2018-08-11T04:25:06.143Z,74.92
2018-08-11T04:27:34.161Z,74.16
2018-08-11T04:30:02.604Z,76.00
2018-08-11T04:32:30.624Z,75.67
2018-08-11T04:34:58.652Z,77.06
2018-08-11T04:37:26.808Z,76.73
2018-08-11T04:39:54.997Z,77.19
2018-08-11T04:42:23.004Z,78.47
2018-08-11T04:44:51.137Z,78.65
2018-08-11T04:47:19.140Z,78.82
2018-08-11T04:49:47.157Z,78.32
2018-08-11T04:52:15.208Z,78.59
2018-08-11T04:54:43.215Z,78.24
2018-08-11T04:57:11.251Z,78.05
2018-08-11T04:59:39.494Z,78.27
2018-08-11T05:02:07.499Z,78.05
2018-08-11T05:04:35.489Z,77.83
2018-08-11T05:07:03.597Z,77.53
2018-08-11T05:09:31.658Z,78.14
2018-08-11T05:11:59.644Z,78.56
2018-08-11T05:14:27.681Z,79.00
2018-08-11T05:16:55.667Z,77.96
2018-08-11T05:19:23.788Z,78.20
2018-08-11T05:21:51.836Z,79.96
2018-08-11T05:24:19.879Z,79.89
2018-08-11T05:26:47.901Z,79.19
2018-08-11T05:29:15.873Z,80.61
2018-08-11T05:31:43.891Z,80.67
2018-08-11T05:34:11.921Z,79.91
2018-08-11T05:36:39.908Z,80.57
2018-08-11T05:39:10.544Z,80.27
2018-08-11T05:41:38.774Z,78.87
2018-08-11T05:44:06.912Z,79.12
2018-08-11T05:46:34.918Z,77.52
2018-08-11T05:49:03.146Z,78.12
2018-08-11T05:51:31.204Z,78.04
2018-08-11T05:53:59.200Z,78.33
2018-08-11T05:56:27.242Z,78.38
2018-08-11T05:58:55.337Z,79.15
2018-08-11T06:01:23.326Z,78.69
2018-08-11T06:03:51.352Z,79.00
2018-08-11T06:06:19.341Z,73.61
2018-08-11T06:08:47.323Z,62.70
2018-08-11T06:11:15.320Z,56.65
2018-08-11T06:13:43.299Z,52.14
2018-08-11T06:16:11.319Z,46.93
2018-08-11T06:18:39.319Z,46.39
2018-08-11T06:21:07.351Z,46.63
2018-08-11T06:23:35.321Z,45.57
2018-08-11T06:26:03.340Z,47.56
2018-08-11T06:28:31.359Z,47.33
2018-08-11T06:30:59.363Z,43.77
2018-08-11T06:33:27.352Z,40.39
2018-08-11T06:35:55.369Z,39.71
2018-08-11T06:38:23.348Z,38.75
2018-08-11T06:40:51.571Z,38.82
2018-08-11T06:43:19.568Z,38.10
2018-08-11T06:45:47.576Z,38.41
2018-08-11T06:48:15.580Z,38.31
2018-08-11T06:50:43.589Z,36.85
2018-08-11T06:53:11.571Z,39.28
2018-08-11T06:55:40.449Z,39.48
2018-08-11T06:58:08.340Z,45.37
2018-08-11T07:00:36.332Z,47.14
2018-08-11T07:03:04.357Z,49.87
2018-08-11T07:05:32.340Z,51.24
2018-08-11T07:08:00.341Z,50.75
2018-08-11T07:10:28.350Z,52.01
2018-08-11T07:12:56.412Z,53.21
2018-08-11T07:15:24.425Z,52.53
2018-08-11T07:17:52.436Z,52.17
2018-08-11T07:20:20.429Z,52.92
2018-08-11T07:22:48.456Z,54.24
2018-08-11T07:25:16.437Z,56.09
2018-08-11T07:27:44.432Z,56.98
2018-08-11T07:30:12.455Z,57.81
2018-08-11T07:32:40.488Z,52.84
2018-08-11T07:35:08.489Z,50.74
2018-08-11T07:37:36.779Z,48.43
2018-08-11T07:40:05.257Z,46.56
2018-08-11T07:42:33.300Z,45.94
2018-08-11T07:45:01.307Z,48.25
2018-08-11T07:47:29.370Z,46.66
2018-08-11T07:49:57.300Z,47.59
2018-08-11T07:52:25.337Z,45.20
2018-08-11T07:54:53.335Z,44.97
2018-08-11T07:57:21.421Z,47.48
2018-08-11T07:59:49.412Z,46.61
2018-08-11T08:02:17.520Z,44.25
2018-08-11T08:04:45.549Z,43.15
2018-08-11T08:07:13.567Z,43.96
2018-08-11T08:09:41.580Z,43.72
2018-08-11T08:12:09.590Z,43.10
2018-08-11T08:14:37.599Z,43.35
2018-08-11T08:17:05.809Z,42.69
2018-08-11T08:19:33.796Z,42.46
2018-08-11T08:22:01.797Z,40.95
2018-08-11T08:24:29.789Z,41.00
2018-08-11T08:26:58.669Z,44.02
2018-08-11T08:29:26.772Z,46.24
2018-08-11T08:31:54.840Z,48.89
2018-08-11T08:34:22.882Z,48.69
2018-08-11T08:36:50.912Z,48.53
2018-08-11T08:39:18.926Z,49.35
2018-08-11T08:41:46.935Z,49.40
2018-08-11T08:44:14.933Z,50.15
2018-08-11T08:46:42.952Z,48.94
2018-08-11T08:49:10.944Z,45.45
2018-08-11T08:51:38.957Z,45.42
2018-08-11T08:54:06.966Z,44.36
2018-08-11T08:56:34.964Z,44.26
2018-08-11T08:59:02.996Z,45.17
2018-08-11T09:01:30.944Z,44.99
2018-08-11T09:03:58.947Z,45.58
2018-08-11T09:06:26.936Z,47.14
2018-08-11T09:08:54.964Z,46.16
2018-08-11T09:11:22.964Z,45.56
2018-08-11T09:13:50.956Z,44.76
2018-08-11T09:16:18.961Z,44.23
2018-08-11T09:18:46.976Z,45.11
2018-08-11T09:21:15.040Z,44.70
2018-08-11T09:23:43.014Z,44.16
2018-08-11T09:26:11.228Z,42.55
2018-08-11T09:28:39.237Z,44.76
2018-08-11T09:31:07.308Z,45.09
2018-08-11T09:33:35.346Z,45.87
2018-08-11T09:36:03.369Z,45.30
2018-08-11T09:38:31.499Z,45.42
2018-08-11T09:40:59.472Z,46.58
2018-08-11T09:43:27.740Z,48.35
2018-08-11T09:45:55.745Z,47.93
2018-08-11T09:48:23.769Z,48.00
2018-08-11T09:50:51.826Z,48.93
2018-08-11T09:53:19.833Z,48.54
2018-08-11T09:55:48.475Z,46.96
2018-08-11T09:58:16.566Z,45.87
2018-08-11T10:00:53.718Z,45.10
2018-08-11T10:03:22.062Z,44.79
2018-08-11T10:05:50.069Z,45.11
2018-08-11T10:08:18.137Z,43.62
2018-08-11T10:10:46.141Z,45.60
2018-08-11T10:13:14.226Z,45.66
2018-08-11T10:15:42.305Z,45.00
2018-08-11T10:18:10.384Z,43.57
2018-08-11T10:20:38.377Z,45.01
2018-08-11T10:23:06.392Z,44.81
2018-08-11T10:25:34.396Z,44.83
2018-08-11T10:28:02.409Z,42.94
2018-08-11T10:30:30.407Z,42.19
2018-08-11T10:32:58.442Z,41.91
2018-08-11T10:35:26.464Z,42.91
2018-08-11T10:37:54.459Z,42.45
2018-08-11T10:40:22.527Z,41.82
2018-08-11T10:42:50.513Z,41.30
2018-08-11T10:45:22.605Z,43.65
2018-08-11T10:47:51.181Z,42.00
2018-08-11T10:50:19.228Z,41.27
2018-08-11T10:52:47.232Z,42.24
2018-08-11T10:55:15.344Z,42.34
2018-08-11T10:57:43.327Z,41.54
2018-08-11T11:00:11.433Z,39.90
2018-08-11T11:02:40.202Z,42.09
2018-08-11T11:05:08.868Z,39.34
2018-08-11T11:07:36.961Z,40.95
2018-08-11T11:10:05.253Z,40.86
2018-08-11T11:15:10.880Z,39.86
2018-08-11T11:17:39.477Z,39.14
2018-08-11T11:20:09.097Z,39.31
2018-08-11T11:22:37.148Z,39.41
2018-08-11T11:25:05.220Z,36.54
2018-08-11T11:27:33.326Z,37.84
2018-08-11T11:30:01.304Z,36.67
2018-08-11T11:32:29.429Z,37.70
2018-08-11T11:34:57.440Z,38.16
2018-08-11T11:37:25.488Z,38.05
2018-08-11T11:39:53.516Z,38.06
2018-08-11T11:42:21.612Z,38.04
2018-08-11T11:44:49.624Z,39.15
2018-08-11T11:47:17.644Z,38.87
2018-08-11T11:49:45.716Z,39.35
2018-08-11T11:52:13.728Z,37.15
2018-08-11T11:54:41.732Z,37.47
2018-08-11T11:57:10.144Z,38.34
2018-08-11T11:59:38.420Z,38.43
2018-08-11T12:02:07.642Z,38.67
2018-08-11T12:04:35.575Z,41.09
2018-08-11T12:07:03.576Z,57.99
2018-08-11T12:09:31.649Z,65.52
2018-08-11T12:11:59.664Z,68.35
2018-08-11T12:14:27.740Z,69.28
2018-08-11T12:16:55.854Z,71.21
2018-08-11T12:19:23.981Z,71.26
2018-08-11T12:21:51.947Z,73.50
2018-08-11T12:24:20.029Z,75.04
2018-08-11T12:26:48.030Z,75.62
2018-08-11T12:29:16.006Z,71.56
2018-08-11T12:31:44.064Z,71.55
2018-08-11T12:34:12.162Z,66.96
2018-08-11T12:36:40.191Z,62.57
2018-08-11T12:39:09.466Z,65.44
2018-08-11T12:41:37.788Z,62.95
2018-08-11T12:44:05.788Z,62.00
2018-08-11T12:46:33.802Z,61.15
2018-08-11T12:49:01.932Z,60.15
2018-08-11T12:51:29.940Z,57.30
2018-08-11T12:53:57.953Z,54.57
2018-08-11T12:56:25.956Z,56.74
2018-08-11T12:58:53.968Z,56.05
2018-08-11T13:01:22.076Z,54.84
2018-08-11T13:03:50.093Z,55.22
2018-08-11T13:06:18.145Z,54.39
2018-08-11T13:08:46.125Z,50.21
2018-08-11T13:11:14.183Z,49.71
2018-08-11T13:13:42.177Z,50.95
2018-08-11T13:16:10.256Z,48.93
2018-08-11T13:18:38.312Z,47.26
2018-08-11T13:21:06.322Z,48.62
2018-08-11T13:23:34.384Z,51.68
2018-08-11T13:26:02.389Z,51.46
2018-08-11T13:28:30.468Z,56.05
2018-08-11T13:30:58.449Z,62.82
2018-08-11T13:33:26.452Z,67.04
2018-08-11T13:35:54.476Z,68.35
2018-08-11T13:38:22.456Z,70.67
2018-08-11T13:40:50.501Z,70.67
2018-08-11T13:43:18.488Z,72.39
2018-08-11T13:45:46.559Z,72.72
2018-08-11T13:48:14.512Z,74.65
2018-08-11T13:50:42.504Z,74.23
2018-08-11T13:53:10.560Z,70.64
2018-08-11T13:55:38.627Z,70.88
2018-08-11T13:58:06.622Z,70.46
2018-08-11T14:00:34.740Z,69.72
2018-08-11T14:03:02.723Z,69.30
2018-08-11T14:05:30.728Z,68.19
2018-08-11T14:07:58.752Z,68.18
2018-08-11T14:10:26.759Z,65.65
2018-08-11T14:12:54.749Z,64.29
2018-08-11T14:15:22.844Z,64.62
2018-08-11T14:17:50.936Z,64.75
2018-08-11T14:20:18.967Z,64.53
2018-08-11T14:22:47.040Z,64.29
2018-08-11T14:25:15.021Z,63.89
2018-08-11T14:27:43.032Z,62.30
2018-08-11T14:30:12.102Z,60.00
2018-08-11T14:32:40.413Z,62.64
2018-08-11T14:35:08.397Z,61.81
2018-08-11T14:37:36.533Z,62.98
2018-08-11T14:40:06.526Z,62.85
2018-08-11T14:42:34.544Z,62.76
2018-08-11T14:45:02.558Z,61.93
2018-08-11T14:47:30.560Z,63.52
2018-08-11T14:49:58.563Z,61.59
2018-08-11T14:52:26.601Z,59.81
2018-08-11T14:54:54.608Z,58.52
2018-08-11T14:57:22.604Z,61.37
2018-08-11T14:59:50.616Z,59.57
2018-08-11T15:02:18.644Z,59.28
2018-08-11T15:04:46.642Z,59.60
2018-08-11T15:07:14.684Z,59.64
2018-08-11T15:09:42.779Z,61.98
2018-08-11T15:12:10.925Z,62.40
2018-08-11T15:14:39.235Z,61.03
2018-08-11T15:17:07.260Z,63.11
2018-08-11T15:19:35.240Z,63.26
2018-08-11T15:22:03.252Z,62.90
2018-08-11T15:24:31.242Z,62.33
2018-08-11T15:26:59.279Z,62.78
2018-08-11T15:29:27.277Z,63.34
2018-08-11T15:31:55.278Z,63.28
2018-08-11T15:34:23.299Z,63.24
2018-08-11T15:36:51.357Z,64.07
2018-08-11T15:39:19.356Z,62.50
2018-08-11T15:41:47.358Z,57.72
2018-08-11T15:44:15.338Z,60.54
2018-08-11T15:46:43.355Z,61.51
2018-08-11T15:49:11.396Z,61.37
2018-08-11T15:51:39.410Z,61.56
2018-08-11T15:54:07.471Z,58.86
2018-08-11T15:56:35.417Z,61.05
2018-08-11T15:59:03.425Z,59.71
2018-08-11T16:01:31.425Z,60.29
2018-08-11T16:03:59.521Z,57.62
2018-08-11T16:06:27.723Z,58.47
2018-08-11T16:08:55.729Z,56.29
2018-08-11T16:11:23.727Z,56.24
2018-08-11T16:13:51.761Z,55.55
2018-08-11T16:16:19.760Z,55.26
2018-08-11T16:18:47.780Z,54.18
2018-08-11T16:21:15.777Z,55.35
2018-08-11T16:23:43.831Z,55.81
2018-08-11T16:26:11.818Z,53.95
2018-08-11T16:28:39.869Z,54.35
2018-08-11T16:31:07.861Z,53.18
2018-08-11T16:33:35.876Z,54.64
2018-08-11T16:36:03.893Z,54.31
2018-08-11T16:38:31.876Z,54.12
2018-08-11T16:40:59.895Z,55.04
2018-08-11T16:43:27.884Z,55.94
2018-08-11T16:45:55.885Z,56.37
2018-08-11T16:48:23.873Z,57.34
2018-08-11T16:50:51.872Z,56.82
2018-08-11T16:53:19.883Z,56.04
2018-08-11T16:55:47.864Z,56.65
2018-08-11T16:58:16.033Z,55.32
2018-08-11T17:03:05.316Z,57.14
2018-08-11T17:05:33.347Z,55.91
2018-08-11T17:08:01.340Z,55.39
2018-08-11T17:10:29.360Z,54.95
2018-08-11T17:12:57.352Z,54.59
2018-08-11T17:15:25.341Z,53.76
2018-08-11T17:17:53.353Z,54.45
2018-08-11T17:20:21.491Z,54.33
2018-08-11T17:22:49.560Z,55.37
2018-08-11T17:25:17.632Z,54.60
2018-08-11T17:27:45.621Z,53.33
2018-08-11T17:30:13.629Z,53.48
2018-08-11T17:32:41.616Z,52.47
2018-08-11T17:35:09.632Z,52.47
2018-08-11T17:37:37.669Z,55.29
2018-08-11T17:40:06.397Z,54.08
2018-08-11T17:42:34.450Z,55.06
2018-08-11T17:45:02.508Z,54.66
2018-08-11T17:47:30.520Z,54.89
2018-08-11T17:49:58.608Z,53.59
2018-08-11T17:52:26.752Z,55.22
2018-08-11T17:54:54.787Z,54.18
2018-08-11T17:57:22.849Z,53.88
2018-08-11T17:59:50.893Z,53.53
2018-08-11T18:02:18.907Z,54.08
2018-08-11T18:04:46.987Z,52.68
2018-08-11T18:07:21.760Z,54.74
2018-08-11T18:09:50.998Z,54.30
2018-08-11T18:12:19.052Z,54.07
2018-08-11T18:14:47.525Z,55.17
2018-08-11T18:17:16.591Z,55.46
2018-08-11T18:19:44.646Z,54.58
2018-08-11T18:22:12.978Z,54.16
2018-08-11T18:24:41.000Z,54.40
2018-08-11T18:27:09.016Z,55.12
2018-08-11T18:29:37.017Z,56.15
2018-08-11T18:32:05.073Z,54.67
2018-08-11T18:34:33.112Z,54.85
2018-08-11T18:37:01.172Z,54.41
2018-08-11T18:39:29.241Z,55.83
2018-08-11T18:41:57.230Z,55.78
2018-08-11T18:44:25.225Z,56.78
2018-08-11T18:46:53.228Z,56.15
2018-08-11T18:49:21.426Z,55.95
2018-08-11T18:51:51.147Z,56.26
2018-08-11T18:54:19.284Z,55.67
2018-08-11T18:56:47.324Z,56.63
2018-08-11T18:59:15.431Z,56.04
2018-08-11T19:01:43.805Z,56.22
2018-08-11T19:04:11.844Z,57.23
2018-08-11T19:06:39.981Z,58.11
2018-08-11T19:09:09.968Z,57.42
2018-08-11T19:11:38.242Z,57.31
2018-08-11T19:14:06.434Z,58.63
2018-08-11T19:16:34.587Z,58.84
2018-08-11T19:19:02.624Z,58.99
2018-08-11T19:21:30.644Z,59.82
2018-08-11T19:23:58.716Z,59.22
2018-08-11T19:26:26.748Z,59.81
2018-08-11T19:28:54.800Z,59.65
2018-08-11T19:31:22.855Z,59.93
2018-08-11T19:33:50.869Z,59.78
2018-08-11T19:36:18.892Z,59.70
2018-08-11T19:38:47.992Z,60.22
2018-08-11T19:41:16.073Z,60.75
2018-08-11T19:43:44.089Z,61.38
2018-08-11T19:46:12.182Z,61.39
2018-08-11T19:48:40.171Z,61.88
2018-08-11T19:51:08.271Z,61.80
2018-08-11T19:53:36.244Z,62.97
2018-08-11T19:56:04.578Z,63.42
2018-08-11T19:58:32.572Z,63.91
2018-08-11T20:01:00.583Z,64.21
2018-08-11T20:03:28.709Z,64.49
2018-08-11T20:05:56.728Z,64.40
2018-08-11T20:08:24.817Z,64.67
2018-08-11T20:10:53.097Z,65.61
2018-08-11T20:13:21.133Z,65.19
2018-08-11T20:15:49.234Z,66.21
2018-08-11T20:18:17.348Z,66.69
2018-08-11T20:20:45.374Z,67.26
2018-08-11T20:23:13.364Z,67.11
2018-08-11T20:25:41.462Z,67.37
2018-08-11T20:28:10.798Z,67.37
2018-08-11T20:30:38.793Z,67.97
2018-08-11T20:33:06.841Z,68.39
2018-08-11T20:35:34.936Z,68.67
2018-08-11T20:38:02.941Z,68.07
2018-08-11T20:40:30.960Z,68.39
2018-08-11T20:42:59.085Z,68.59
2018-08-11T20:45:27.084Z,68.25
2018-08-11T20:47:55.190Z,67.90
2018-08-11T20:50:23.249Z,68.35
2018-08-11T20:52:51.233Z,68.87
2018-08-11T20:55:19.312Z,68.60
2018-08-11T20:57:47.381Z,69.24
2018-08-11T21:00:15.460Z,67.99
2018-08-11T21:02:43.500Z,69.08
2018-08-11T21:05:13.762Z,68.00
2018-08-11T21:07:41.745Z,68.50
2018-08-11T21:10:12.563Z,67.37
2018-08-11T21:12:41.338Z,67.29
2018-08-11T21:15:09.988Z,68.42
2018-08-11T21:17:38.405Z,68.57
2018-08-11T21:20:08.277Z,68.66
2018-08-11T21:22:36.536Z,68.51
2018-08-11T21:25:05.483Z,68.66
2018-08-11T21:27:33.553Z,69.81
2018-08-11T21:30:01.645Z,69.88
2018-08-11T21:32:29.640Z,70.22
2018-08-11T21:34:57.664Z,70.83
2018-08-11T21:37:25.739Z,70.89
2018-08-11T21:39:53.794Z,70.64
2018-08-11T21:42:21.793Z,71.12
2018-08-11T21:44:50.256Z,70.05
2018-08-11T21:47:18.432Z,70.32
2018-08-11T21:49:46.505Z,70.56
2018-08-11T21:52:14.497Z,71.30
2018-08-11T21:54:42.492Z,71.09
2018-08-11T21:57:10.493Z,71.18
2018-08-11T21:59:38.481Z,70.32
2018-08-11T22:02:06.583Z,71.21
2018-08-11T22:04:35.488Z,70.96
2018-08-11T22:07:05.342Z,71.09
2018-08-11T22:09:33.314Z,71.22
2018-08-11T22:12:01.604Z,70.66
2018-08-11T22:14:29.643Z,70.80
2018-08-11T22:16:57.637Z,71.09
2018-08-11T22:19:25.674Z,72.55
2018-08-11T22:21:53.864Z,71.66
2018-08-11T22:24:21.853Z,71.27
2018-08-11T22:26:49.890Z,71.41
2018-08-11T22:29:17.929Z,70.90
2018-08-11T22:31:45.936Z,70.98
2018-08-11T22:34:13.974Z,71.23
2018-08-11T22:36:41.990Z,71.23
2018-08-11T22:39:11.130Z,71.70
2018-08-11T22:41:39.165Z,72.75
2018-08-11T22:44:07.145Z,73.45
2018-08-11T22:46:35.439Z,73.64
2018-08-11T22:49:03.589Z,73.63
2018-08-11T22:51:31.680Z,73.60
2018-08-11T22:53:59.680Z,73.12
2018-08-11T22:56:27.656Z,72.46
2018-08-11T22:58:55.727Z,72.14
2018-08-11T23:01:23.717Z,72.58
2018-08-11T23:03:51.712Z,71.89
2018-08-11T23:06:19.709Z,71.74
2018-08-11T23:08:47.694Z,70.72
2018-08-11T23:11:15.765Z,70.53
2018-08-11T23:13:43.772Z,71.19
2018-08-11T23:16:11.784Z,70.24
2018-08-11T23:18:39.833Z,70.22
2018-08-11T23:21:07.866Z,71.58
2018-08-11T23:23:35.957Z,71.70
2018-08-11T23:26:04.016Z,71.59
2018-08-11T23:28:32.012Z,71.08
2018-08-11T23:31:00.001Z,71.80
2018-08-11T23:33:28.068Z,71.31
2018-08-11T23:35:56.194Z,71.36
2018-08-11T23:38:24.185Z,72.30
2018-08-11T23:40:52.161Z,71.86
2018-08-11T23:43:20.156Z,72.39
2018-08-11T23:45:48.208Z,72.17
2018-08-11T23:48:16.301Z,71.39
2018-08-11T23:50:44.292Z,71.81
2018-08-11T23:53:12.300Z,72.10
2018-08-11T23:55:40.388Z,71.21
2018-08-11T23:58:08.392Z,72.11
